PWSweather.com
Personal Weather Stations
Station Observations
IVENETOL9
Brugine, BrugineIT 35020

BrugineBrugineIT 35020

Lat: 45.2975, Lon: 11.9962777

Elevation: 19

Station Type: Davis Vantage Pro2 Plus

http://www.meteobrugine.it/

Latest ConditionsUpdated 4:00:12 PM GMT+01:01 Wednesday, Feb 10, 2016
Currently Today's Max Today's Min Today's Average
Temperature 54.1°F12.3°C 54.1°F12.3°C 43.7°F6.5°C 47.9°F8.8°C
Dew Point 39.6°F4.2°C 41.4°F5.2°C 25.6°F-3.6°C 34.4°F1.3°C
Winds 3.0 mph SW4.8 kmh SW 12.9 mph SW20.8 kmh SW - 2.4 mph 3.9 kmh
Wind Gusts 5.0 mph8.0 kmh 15.0 mph24.1 kmh - -
Humidity 58% 81% 43% 61%
Pressure 29.45 in997.3 mb 29.45 in997.3 mb 29.21 in989.2 mb -
Precipitation - 0.18 in4.6 mm - -
Hour Temp Dew Point Humidity Winds Wind Gusts Pressure Precip Precip Rate Daily Precip Total
04:00 PM 54.1°F12.3°C 39.6°F4.2°C 58% 3.0 mph SW4.8 kmh SW 5.0 mph8.0 kmh 29.45 in997.3 mb - 0.00 in0.0 mm 0.18 in4.6 mm
03:45 PM 52.8°F11.6°C 39.7°F4.3°C 61% 2.4 mph SW3.9 kmh SW 5.0 mph8.0 kmh 29.44 in997.0 mb - 0.00 in0.0 mm 0.18 in4.6 mm
03:30 PM 52.1°F11.2°C 39.5°F4.2°C 62% 0.6 mph SW1.0 kmh SW 3.0 mph4.8 kmh 29.44 in997.0 mb - 0.00 in0.0 mm 0.18 in4.6 mm
03:15 PM 52.1°F11.2°C 38.6°F3.7°C 60% 1.6 mph SW2.6 kmh SW 4.0 mph6.4 kmh 29.44 in997.0 mb - 0.00 in0.0 mm 0.18 in4.6 mm
03:00 PM 52.3°F11.3°C 38.8°F3.8°C 60% 2.7 mph SW4.3 kmh SW 6.0 mph9.7 kmh 29.43 in996.6 mb - 0.00 in0.0 mm 0.18 in4.6 mm
02:45 PM 52.5°F11.4°C 39.0°F3.9°C 60% 3.2 mph WSW5.1 kmh WSW 7.0 mph11.3 kmh 29.43 in996.6 mb - 0.00 in0.0 mm 0.18 in4.6 mm
02:30 PM 52.8°F11.6°C 38.9°F3.8°C 59% 2.0 mph SW3.2 kmh SW 4.0 mph6.4 kmh 29.43 in996.6 mb - 0.00 in0.0 mm 0.18 in4.6 mm
02:15 PM 52.3°F11.3°C 38.0°F3.3°C 58% 0.1 mph SW0.2 kmh SW 1.0 mph1.6 kmh 29.43 in996.6 mb - 0.00 in0.0 mm 0.18 in4.6 mm
02:00 PM 52.1°F11.2°C 36.9°F2.7°C 56% Calm Calm -- 29.43 in996.6 mb - 0.00 in0.0 mm 0.18 in4.6 mm
01:45 PM 51.9°F11.1°C 38.0°F3.3°C 59% Calm Calm 1.0 mph1.6 kmh 29.42 in996.3 mb - 0.00 in0.0 mm 0.18 in4.6 mm
01:30 PM 51.9°F11.1°C 39.3°F4.1°C 62% 0.6 mph WSW1.0 kmh WSW 4.0 mph6.4 kmh 29.42 in996.3 mb - 0.00 in0.0 mm 0.18 in4.6 mm
01:15 PM 51.8°F11.0°C 39.2°F4.0°C 62% 0.3 mph W0.5 kmh W -- 29.41 in995.9 mb - 0.00 in0.0 mm 0.18 in4.6 mm
01:00 PM 51.8°F11.0°C 40.0°F4.4°C 64% 0.2 mph WNW0.3 kmh WNW 3.0 mph4.8 kmh 29.41 in995.9 mb - 0.00 in0.0 mm 0.18 in4.6 mm
12:45 PM 50.8°F10.4°C 39.9°F4.4°C 66% 0.6 mph NW1.0 kmh NW 4.0 mph6.4 kmh 29.40 in995.6 mb - 0.00 in0.0 mm 0.18 in4.6 mm
12:30 PM 50.0°F10.0°C 41.0°F5.0°C 71% Calm Calm 1.0 mph1.6 kmh 29.40 in995.6 mb - 0.00 in0.0 mm 0.18 in4.6 mm
12:15 PM 49.7°F9.8°C 40.3°F4.6°C 70% Calm Calm -- 29.40 in995.6 mb - 0.00 in0.0 mm 0.18 in4.6 mm
12:00 PM 48.9°F9.4°C 40.6°F4.8°C 73% 2.5 mph W4.0 kmh W 6.0 mph9.7 kmh 29.39 in995.3 mb - 0.00 in0.0 mm 0.18 in4.6 mm
11:45 AM 48.0°F8.9°C 41.4°F5.2°C 78% 1.8 mph S2.9 kmh S 6.0 mph9.7 kmh 29.39 in995.3 mb - 0.00 in0.0 mm 0.18 in4.6 mm
11:30 AM 47.5°F8.6°C 41.0°F5.0°C 78% 3.8 mph S6.1 kmh S 5.0 mph8.0 kmh 29.39 in995.3 mb - 0.00 in0.0 mm 0.18 in4.6 mm
11:15 AM 47.2°F8.4°C 40.7°F4.8°C 78% 0.3 mph SSE0.5 kmh SSE 1.0 mph1.6 kmh 29.39 in995.3 mb - 0.00 in0.0 mm 0.18 in4.6 mm
11:00 AM 47.2°F8.4°C 40.4°F4.7°C 77% 5.2 mph SSE8.4 kmh SSE 8.0 mph12.9 kmh 29.38 in994.9 mb - 0.00 in0.0 mm 0.18 in4.6 mm
10:45 AM 47.3°F8.5°C 40.1°F4.5°C 76% 2.7 mph SE4.3 kmh SE 4.0 mph6.4 kmh 29.38 in994.9 mb - 0.00 in0.0 mm 0.18 in4.6 mm
10:30 AM 47.2°F8.4°C 40.6°F4.8°C 78% Calm Calm 1.0 mph1.6 kmh 29.38 in994.9 mb - 0.00 in0.0 mm 0.18 in4.6 mm
10:15 AM 46.7°F8.2°C 40.9°F4.9°C 80% Calm Calm -- 29.36 in994.2 mb - 0.00 in0.0 mm 0.18 in4.6 mm
10:00 AM 46.3°F7.9°C 40.5°F4.7°C 80% Calm Calm -- 29.36 in994.2 mb - 0.00 in0.0 mm 0.18 in4.6 mm
09:45 AM 45.9°F7.7°C 40.1°F4.5°C 80% Calm Calm -- 29.35 in993.9 mb - 0.00 in0.0 mm 0.18 in4.6 mm
09:30 AM 45.6°F7.6°C 39.8°F4.3°C 80% 0.8 mph N1.3 kmh N 1.0 mph1.6 kmh 29.34 in993.6 mb - 0.00 in0.0 mm 0.18 in4.6 mm
09:15 AM 45.6°F7.6°C 39.8°F4.3°C 80% Calm Calm 1.0 mph1.6 kmh 29.34 in993.6 mb - 0.00 in0.0 mm 0.18 in4.6 mm
09:00 AM 45.6°F7.6°C 39.8°F4.3°C 80% 4.4 mph NW7.1 kmh NW 9.0 mph14.5 kmh 29.33 in993.2 mb - 0.00 in0.0 mm 0.18 in4.6 mm
08:45 AM 45.8°F7.7°C 40.0°F4.4°C 80% 3.5 mph W5.6 kmh W 6.0 mph9.7 kmh 29.31 in992.6 mb - 0.00 in0.0 mm 0.18 in4.6 mm
08:30 AM 45.8°F7.7°C 39.7°F4.3°C 79% 2.7 mph SW4.3 kmh SW 4.0 mph6.4 kmh 29.28 in991.5 mb - 0.00 in0.0 mm 0.18 in4.6 mm
08:15 AM 45.6°F7.6°C 39.8°F4.3°C 80% 4.0 mph WNW6.4 kmh WNW 15.0 mph24.1 kmh 29.26 in990.9 mb - 0.00 in0.0 mm 0.18 in4.6 mm
08:00 AM 44.9°F7.2°C 39.1°F3.9°C 80% 7.9 mph SW12.7 kmh SW 11.0 mph17.7 kmh 29.24 in990.2 mb - 0.00 in0.0 mm 0.18 in4.6 mm
07:45 AM 44.3°F6.8°C 38.2°F3.4°C 79% 5.8 mph SW9.3 kmh SW 9.0 mph14.5 kmh 29.23 in989.8 mb - 0.00 in0.0 mm 0.18 in4.6 mm
07:30 AM 44.8°F7.1°C 39.0°F3.9°C 80% 8.3 mph NW13.4 kmh NW 12.0 mph19.3 kmh 29.23 in989.8 mb - 0.00 in0.0 mm 0.18 in4.6 mm
07:15 AM 45.1°F7.3°C 39.6°F4.2°C 81% 12.9 mph SW20.8 kmh SW 15.0 mph24.1 kmh 29.23 in989.8 mb - 0.00 in0.0 mm 0.18 in4.6 mm
07:00 AM 44.7°F7.1°C 38.3°F3.5°C 78% 8.4 mph SSW13.5 kmh SSW 14.0 mph22.5 kmh 29.22 in989.5 mb - 0.00 in0.0 mm 0.18 in4.6 mm
06:45 AM 44.9°F7.2°C 37.4°F3.0°C 75% 8.0 mph SSW12.9 kmh SSW 15.0 mph24.1 kmh 29.22 in989.5 mb - 0.00 in0.0 mm 0.18 in4.6 mm
06:30 AM 44.5°F6.9°C 33.5°F0.8°C 65% 6.7 mph S10.8 kmh S 13.0 mph20.9 kmh 29.22 in989.5 mb - 0.00 in0.0 mm 0.18 in4.6 mm
06:15 AM 44.0°F6.7°C 28.0°F-2.2°C 53% 5.4 mph SW8.7 kmh SW 12.0 mph19.3 kmh 29.21 in989.2 mb - 0.00 in0.0 mm 0.18 in4.6 mm
06:00 AM 43.7°F6.5°C 26.3°F-3.2°C 50% 4.0 mph S6.4 kmh S 7.0 mph11.3 kmh 29.22 in989.5 mb - 0.00 in0.0 mm 0.18 in4.6 mm
05:45 AM 44.3°F6.8°C 26.3°F-3.2°C 49% 3.2 mph S5.1 kmh S 5.0 mph8.0 kmh 29.22 in989.5 mb - 0.00 in0.0 mm 0.18 in4.6 mm
05:30 AM 44.9°F7.2°C 25.9°F-3.4°C 47% 5.1 mph S8.2 kmh S 6.0 mph9.7 kmh 29.23 in989.8 mb - 0.00 in0.0 mm 0.18 in4.6 mm
05:15 AM 45.5°F7.5°C 25.9°F-3.4°C 46% 3.8 mph SSW6.1 kmh SSW 6.0 mph9.7 kmh 29.23 in989.8 mb - 0.00 in0.0 mm 0.18 in4.6 mm
05:00 AM 45.7°F7.6°C 25.6°F-3.6°C 45% 5.2 mph SSW8.4 kmh SSW 9.0 mph14.5 kmh 29.23 in989.8 mb - 0.00 in0.0 mm 0.18 in4.6 mm
04:45 AM 46.0°F7.8°C 25.8°F-3.4°C 45% 3.9 mph S6.3 kmh S 7.0 mph11.3 kmh 29.24 in990.2 mb - 0.00 in0.0 mm 0.18 in4.6 mm
04:30 AM 45.8°F7.7°C 25.6°F-3.6°C 45% 3.7 mph S6.0 kmh S 6.0 mph9.7 kmh 29.24 in990.2 mb - 0.00 in0.0 mm 0.18 in4.6 mm
04:15 AM 46.1°F7.8°C 25.9°F-3.4°C 45% 2.7 mph S4.3 kmh S 6.0 mph9.7 kmh 29.24 in990.2 mb - 0.00 in0.0 mm 0.18 in4.6 mm
04:00 AM 46.5°F8.1°C 26.3°F-3.2°C 45% 0.9 mph S1.4 kmh S 3.0 mph4.8 kmh 29.25 in990.5 mb - 0.00 in0.0 mm 0.18 in4.6 mm
03:45 AM 46.6°F8.1°C 26.4°F-3.1°C 45% 1.4 mph SW2.3 kmh SW 4.0 mph6.4 kmh 29.25 in990.5 mb - 0.00 in0.0 mm 0.18 in4.6 mm
03:30 AM 46.6°F8.1°C 26.4°F-3.1°C 45% 1.2 mph SSW1.9 kmh SSW 2.0 mph3.2 kmh 29.25 in990.5 mb - 0.00 in0.0 mm 0.18 in4.6 mm
03:15 AM 46.6°F8.1°C 26.4°F-3.1°C 45% 0.8 mph SSW1.3 kmh SSW 3.0 mph4.8 kmh 29.25 in990.5 mb - 0.00 in0.0 mm 0.18 in4.6 mm
03:00 AM 46.9°F8.3°C 26.6°F-3.0°C 45% 0.1 mph S0.2 kmh S -- 29.25 in990.5 mb - 0.00 in0.0 mm 0.18 in4.6 mm
02:45 AM 47.2°F8.4°C 26.9°F-2.8°C 45% Calm Calm -- 29.23 in989.8 mb - 0.00 in0.0 mm 0.18 in4.6 mm
02:30 AM 47.5°F8.6°C 27.2°F-2.7°C 45% 0.2 mph SW0.3 kmh SW 1.0 mph1.6 kmh 29.27 in991.2 mb - 0.00 in0.0 mm 0.18 in4.6 mm
02:15 AM 47.7°F8.7°C 27.4°F-2.6°C 45% 1.6 mph WSW2.6 kmh WSW 1.0 mph1.6 kmh 29.28 in991.5 mb - 0.00 in0.0 mm 0.18 in4.6 mm
02:00 AM 48.1°F8.9°C 27.7°F-2.4°C 45% 1.1 mph WSW1.8 kmh WSW 3.0 mph4.8 kmh 29.28 in991.5 mb - 0.00 in0.0 mm 0.18 in4.6 mm
01:45 AM 48.4°F9.1°C 27.5°F-2.5°C 44% 0.1 mph WSW0.2 kmh WSW 1.0 mph1.6 kmh 29.28 in991.5 mb - 0.01 in0.3 mm 0.18 in4.6 mm
01:30 AM 48.6°F9.2°C 28.2°F-2.1°C 45% 0.1 mph WSW0.2 kmh WSW -- 29.29 in991.9 mb - 0.02 in0.5 mm 0.17 in4.3 mm
01:15 AM 48.7°F9.3°C 28.3°F-2.1°C 45% 1.8 mph WSW2.9 kmh WSW 5.0 mph8.0 kmh 29.29 in991.9 mb - 0.03 in0.8 mm 0.17 in4.3 mm
01:00 AM 48.8°F9.3°C 28.4°F-2.0°C 45% 1.8 mph WNW2.9 kmh WNW 3.0 mph4.8 kmh 29.30 in992.2 mb - 0.05 in1.3 mm 0.13 in3.3 mm
12:45 AM 49.5°F9.7°C 28.4°F-2.0°C 44% Calm Calm 1.0 mph1.6 kmh 29.30 in992.2 mb - 0.04 in1.0 mm 0.09 in2.3 mm
12:30 AM 49.6°F9.8°C 28.0°F-2.2°C 43% Calm Calm -- 29.31 in992.6 mb - 0.05 in1.3 mm 0.06 in1.5 mm
12:15 AM 49.4°F9.7°C 27.8°F-2.3°C 43% 2.1 mph SSE3.4 kmh SSE 4.0 mph6.4 kmh 29.32 in992.9 mb - 0.02 in0.5 mm 0.02 in0.5 mm
12:00 AM 49.1°F9.5°C 27.5°F-2.5°C 43% 0.7 mph SSE1.1 kmh SSE 2.0 mph3.2 kmh 29.32 in992.9 mb - 0.02 in0.5 mm 0.02 in0.5 mm